createdAt,value
2019-05-18T00:01:20.598Z,13.00
2019-05-18T00:03:50.881Z,12.99
2019-05-18T00:06:20.067Z,12.89
2019-05-18T00:08:49.174Z,12.83
2019-05-18T00:11:18.327Z,12.77
2019-05-18T00:13:47.553Z,12.77
2019-05-18T00:16:17.236Z,12.78
2019-05-18T00:18:46.756Z,12.78
2019-05-18T00:21:15.741Z,12.69
2019-05-18T00:23:44.930Z,12.65
2019-05-18T00:26:14.203Z,12.61
2019-05-18T00:28:43.409Z,12.56
2019-05-18T00:31:14.546Z,12.56
2019-05-18T00:33:44.418Z,12.53
2019-05-18T00:36:13.739Z,12.47
2019-05-18T00:38:42.892Z,12.46
2019-05-18T00:41:12.448Z,12.41
2019-05-18T00:43:41.514Z,12.41
2019-05-18T00:46:10.659Z,12.42
2019-05-18T00:48:39.706Z,12.41
2019-05-18T00:51:10.048Z,12.39
2019-05-18T00:53:39.761Z,12.35
2019-05-18T00:56:09.136Z,12.34
2019-05-18T00:58:38.844Z,12.34
2019-05-18T01:01:08.093Z,12.26
2019-05-18T01:03:37.151Z,12.24
2019-05-18T01:06:06.751Z,12.24
2019-05-18T01:08:35.964Z,12.19
2019-05-18T01:11:05.460Z,12.15
2019-05-18T01:13:35.000Z,12.15
2019-05-18T01:16:04.590Z,12.13
2019-05-18T01:18:33.882Z,12.13
2019-05-18T01:21:03.322Z,12.10
2019-05-18T01:23:33.147Z,12.10
2019-05-18T01:26:02.803Z,12.08
2019-05-18T01:28:32.749Z,11.96
2019-05-18T01:31:02.837Z,11.96
2019-05-18T01:33:32.491Z,12.04
2019-05-18T01:36:01.983Z,12.05
2019-05-18T01:38:31.124Z,12.05
2019-05-18T01:41:00.270Z,12.07
2019-05-18T01:43:30.163Z,12.07
2019-05-18T01:45:59.569Z,12.12
2019-05-18T01:48:28.650Z,12.12
2019-05-18T01:50:57.987Z,12.16
2019-05-18T01:53:27.652Z,12.16
2019-05-18T01:55:57.182Z,12.17
2019-05-18T01:58:27.193Z,12.19
2019-05-18T02:00:56.925Z,12.23
2019-05-18T02:03:26.270Z,12.22
2019-05-18T02:05:55.335Z,12.22
2019-05-18T02:08:24.479Z,12.13
2019-05-18T02:10:54.028Z,12.13
2019-05-18T02:13:23.478Z,12.22
2019-05-18T02:15:52.936Z,12.23
2019-05-18T02:18:28.997Z,12.24
2019-05-18T02:20:54.346Z,12.23
2019-05-18T02:23:23.854Z,12.23
2019-05-18T02:25:53.055Z,12.23
2019-05-18T02:28:22.406Z,12.24
2019-05-18T02:30:51.401Z,12.28
2019-05-18T02:33:21.237Z,12.33
2019-05-18T02:35:50.424Z,12.33
2019-05-18T02:38:20.038Z,12.38
2019-05-18T02:40:49.295Z,12.41
2019-05-18T02:43:19.121Z,12.41
2019-05-18T02:45:48.559Z,12.42
2019-05-18T02:48:18.158Z,12.51
2019-05-18T02:50:47.451Z,12.55
2019-05-18T02:53:16.646Z,12.63
2019-05-18T02:55:46.809Z,12.63
2019-05-18T02:58:16.386Z,12.70
2019-05-18T03:00:45.849Z,12.74
2019-05-18T03:03:15.320Z,12.90
2019-05-18T03:05:45.103Z,12.98
2019-05-18T03:08:14.413Z,13.08
2019-05-18T03:10:43.569Z,13.14
2019-05-18T03:13:12.907Z,13.21
2019-05-18T03:15:42.128Z,13.34
2019-05-18T03:18:11.289Z,13.34
2019-05-18T03:20:40.466Z,13.42
2019-05-18T03:23:10.175Z,13.47
2019-05-18T03:25:39.506Z,13.53
2019-05-18T03:28:08.486Z,13.58
2019-05-18T03:30:37.652Z,13.65
2019-05-18T03:33:06.809Z,13.78
2019-05-18T03:35:36.130Z,13.78
2019-05-18T03:38:05.145Z,13.83
2019-05-18T03:40:34.201Z,13.88
2019-05-18T03:43:03.488Z,13.93
2019-05-18T03:45:32.709Z,14.02
2019-05-18T03:48:02.053Z,14.02
2019-05-18T03:50:31.718Z,14.06
2019-05-18T03:53:01.661Z,14.12
2019-05-18T03:55:30.857Z,14.19
2019-05-18T03:58:00.076Z,14.26
2019-05-18T04:00:30.026Z,14.32
2019-05-18T04:02:59.705Z,14.40
2019-05-18T04:05:29.161Z,14.46
2019-05-18T04:07:58.910Z,14.50
2019-05-18T04:10:29.349Z,14.54
2019-05-18T04:12:58.939Z,14.60
2019-05-18T04:15:28.225Z,14.67
2019-05-18T04:17:58.436Z,14.73
2019-05-18T04:20:27.619Z,14.79
2019-05-18T04:22:57.048Z,14.86
2019-05-18T04:25:26.148Z,14.95
2019-05-18T04:27:55.372Z,15.03
2019-05-18T04:30:24.596Z,15.12
2019-05-18T04:32:53.650Z,15.21
2019-05-18T04:35:22.982Z,15.34
2019-05-18T04:37:52.343Z,15.41
2019-05-18T04:40:21.480Z,15.52
2019-05-18T04:42:52.609Z,15.59
2019-05-18T04:45:22.505Z,15.60
2019-05-18T04:47:51.660Z,15.70
2019-05-18T04:50:20.838Z,15.77
2019-05-18T04:52:49.917Z,15.87
2019-05-18T04:55:18.964Z,15.94
2019-05-18T04:57:48.256Z,16.00
2019-05-18T05:00:17.322Z,16.05
2019-05-18T05:02:47.244Z,16.07
2019-05-18T05:05:16.274Z,16.17
2019-05-18T05:07:45.265Z,16.27
2019-05-18T05:10:14.612Z,16.30
2019-05-18T05:12:44.885Z,16.38
2019-05-18T05:15:14.607Z,16.42
2019-05-18T05:17:43.584Z,16.52
2019-05-18T05:20:19.897Z,16.57
2019-05-18T05:22:43.767Z,16.63
2019-05-18T05:25:12.965Z,16.67
2019-05-18T05:27:42.186Z,16.69
2019-05-18T05:30:11.716Z,16.70
2019-05-18T05:32:41.033Z,16.76
2019-05-18T05:35:10.231Z,16.79
2019-05-18T05:37:39.466Z,16.82
2019-05-18T05:40:09.385Z,16.87
2019-05-18T05:42:38.621Z,16.90
2019-05-18T05:45:08.295Z,16.92
2019-05-18T05:47:37.330Z,16.95
2019-05-18T05:50:07.037Z,16.99
2019-05-18T05:52:37.418Z,17.02
2019-05-18T05:55:07.674Z,17.06
2019-05-18T05:57:36.774Z,17.09
2019-05-18T06:00:06.452Z,17.15
2019-05-18T06:02:35.912Z,17.18
2019-05-18T06:05:05.375Z,17.24
2019-05-18T06:07:34.924Z,17.26
2019-05-18T06:10:05.957Z,17.28
2019-05-18T06:12:35.437Z,17.31
2019-05-18T06:15:05.467Z,17.29
2019-05-18T06:17:35.143Z,17.35
2019-05-18T06:20:04.548Z,17.34
2019-05-18T06:22:34.871Z,17.33
2019-05-18T06:25:05.299Z,17.37
2019-05-18T06:27:34.931Z,17.40
2019-05-18T06:30:04.147Z,17.40
2019-05-18T06:32:33.274Z,17.44
2019-05-18T06:35:02.818Z,17.48
2019-05-18T06:37:31.803Z,17.55
2019-05-18T06:40:02.264Z,17.64
2019-05-18T06:42:31.593Z,17.70
2019-05-18T06:45:01.120Z,17.74
2019-05-18T06:47:30.333Z,17.80
2019-05-18T06:49:59.873Z,17.81
2019-05-18T06:52:29.084Z,17.82
2019-05-18T06:54:58.209Z,17.87
2019-05-18T06:57:27.773Z,17.94
2019-05-18T06:59:56.994Z,17.95
2019-05-18T07:02:26.297Z,18.02
2019-05-18T07:04:55.443Z,18.06
2019-05-18T07:07:24.499Z,18.07
2019-05-18T07:09:53.946Z,18.09
2019-05-18T07:12:23.317Z,18.11
2019-05-18T07:14:52.767Z,18.13
2019-05-18T07:17:21.777Z,18.15
2019-05-18T07:19:50.985Z,18.19
2019-05-18T07:22:20.068Z,18.22
2019-05-18T07:24:49.303Z,18.23
2019-05-18T07:27:18.919Z,18.23
2019-05-18T07:29:48.223Z,18.27
2019-05-18T07:32:17.822Z,18.31
2019-05-18T07:34:49.635Z,18.37
2019-05-18T07:37:18.918Z,18.42
2019-05-18T07:39:48.609Z,18.48
2019-05-18T07:42:17.792Z,18.50
2019-05-18T07:44:46.716Z,18.51
2019-05-18T07:47:15.769Z,18.45
2019-05-18T07:49:44.889Z,18.44
2019-05-18T07:52:17.127Z,18.46
2019-05-18T07:54:45.198Z,18.52
2019-05-18T07:57:14.390Z,18.57
2019-05-18T07:59:43.712Z,18.63
2019-05-18T08:02:12.941Z,18.64
2019-05-18T08:04:42.253Z,18.69
2019-05-18T08:07:11.827Z,18.71
2019-05-18T08:09:40.972Z,18.71
2019-05-18T08:12:10.287Z,18.70
2019-05-18T08:14:40.775Z,18.67
2019-05-18T08:17:10.086Z,18.67
2019-05-18T08:19:39.285Z,18.70
2019-05-18T08:22:08.753Z,18.70
2019-05-18T08:24:37.993Z,18.76
2019-05-18T08:27:07.871Z,18.81
2019-05-18T08:29:37.545Z,18.83
2019-05-18T08:32:06.737Z,18.82
2019-05-18T08:34:36.008Z,18.82
2019-05-18T08:37:05.187Z,18.86
2019-05-18T08:39:34.389Z,18.86
2019-05-18T08:42:03.418Z,18.88
2019-05-18T08:44:32.780Z,18.89
2019-05-18T08:47:01.894Z,18.95
2019-05-18T08:49:31.665Z,18.93
2019-05-18T08:52:08.374Z,18.91
2019-05-18T08:54:32.865Z,18.91
2019-05-18T08:57:01.892Z,18.94
2019-05-18T08:59:31.120Z,18.96
2019-05-18T09:02:00.491Z,18.95
2019-05-18T09:04:29.793Z,18.95
2019-05-18T09:06:59.022Z,19.03
2019-05-18T09:09:29.260Z,19.09
2019-05-18T09:11:58.614Z,19.17
2019-05-18T09:14:27.804Z,19.14
2019-05-18T09:16:56.992Z,19.18
2019-05-18T09:19:26.023Z,19.17
2019-05-18T09:21:55.249Z,19.23
2019-05-18T09:24:24.506Z,19.23
2019-05-18T09:26:54.029Z,19.26
2019-05-18T09:29:24.032Z,19.24
2019-05-18T09:31:54.000Z,19.28
2019-05-18T09:34:23.147Z,19.32
2019-05-18T09:36:52.550Z,19.37
2019-05-18T09:39:22.895Z,19.39
2019-05-18T09:41:52.507Z,19.40
2019-05-18T09:44:22.058Z,19.43
2019-05-18T09:46:51.303Z,19.43
2019-05-18T09:49:21.248Z,19.47
2019-05-18T09:51:50.872Z,19.45
2019-05-18T09:54:19.959Z,19.49
2019-05-18T09:56:49.187Z,19.54
2019-05-18T09:59:18.400Z,19.57
2019-05-18T10:01:47.578Z,19.58
2019-05-18T10:04:16.925Z,19.62
2019-05-18T10:06:46.074Z,19.62
2019-05-18T10:09:15.405Z,19.61
2019-05-18T10:11:44.640Z,19.56
2019-05-18T10:14:13.755Z,19.58
2019-05-18T10:16:43.034Z,19.62
2019-05-18T10:19:13.235Z,19.68
2019-05-18T10:21:42.373Z,19.70
2019-05-18T10:24:11.802Z,19.70
2019-05-18T10:26:40.903Z,19.70
2019-05-18T10:29:10.137Z,19.75
2019-05-18T10:31:39.562Z,19.80
2019-05-18T10:34:09.157Z,19.86
2019-05-18T10:36:38.993Z,19.86
2019-05-18T10:39:08.919Z,19.93
2019-05-18T10:41:39.746Z,19.96
2019-05-18T10:44:09.038Z,20.00
2019-05-18T10:46:38.192Z,20.01
2019-05-18T10:49:07.391Z,20.01
2019-05-18T10:51:36.579Z,20.09
2019-05-18T10:54:05.884Z,20.13
2019-05-18T10:56:36.023Z,20.14
2019-05-18T10:59:08.422Z,20.14
2019-05-18T11:01:38.111Z,20.17
2019-05-18T11:04:08.086Z,20.16
2019-05-18T11:06:37.381Z,20.21
2019-05-18T11:09:08.046Z,20.26
2019-05-18T11:11:37.431Z,20.29
2019-05-18T11:14:06.502Z,20.58
2019-05-18T11:16:35.885Z,21.02
2019-05-18T11:19:05.714Z,21.92
2019-05-18T11:21:35.506Z,23.44
2019-05-18T11:24:04.938Z,24.94
2019-05-18T11:26:34.500Z,26.10
2019-05-18T11:29:04.860Z,26.31
2019-05-18T11:31:34.106Z,25.80
2019-05-18T11:34:03.283Z,25.06
2019-05-18T11:36:33.095Z,24.45
2019-05-18T11:39:02.290Z,24.03
2019-05-18T11:41:32.850Z,23.82
2019-05-18T11:44:04.203Z,23.96
2019-05-18T11:46:33.298Z,24.84
2019-05-18T11:49:02.930Z,26.49
2019-05-18T11:51:32.116Z,28.34
2019-05-18T11:54:01.330Z,30.03
2019-05-18T11:56:30.535Z,31.41
2019-05-18T11:58:59.696Z,32.42
2019-05-18T12:01:28.712Z,33.36
2019-05-18T12:03:57.699Z,34.25
2019-05-18T12:06:26.541Z,35.26
2019-05-18T12:08:58.586Z,36.33
2019-05-18T12:11:26.820Z,36.82
2019-05-18T12:13:56.015Z,37.49
2019-05-18T12:16:25.809Z,37.96
2019-05-18T12:18:57.684Z,38.53
2019-05-18T12:21:26.288Z,38.85
2019-05-18T12:23:55.260Z,39.23
2019-05-18T12:26:24.108Z,39.73
2019-05-18T12:28:53.138Z,40.31
2019-05-18T12:31:22.079Z,40.75
2019-05-18T12:33:51.192Z,41.33
2019-05-18T12:36:20.526Z,41.73
2019-05-18T12:38:49.669Z,42.18
2019-05-18T12:41:21.594Z,42.81
2019-05-18T12:43:51.215Z,42.98
2019-05-18T12:46:20.559Z,42.73
2019-05-18T12:48:49.638Z,42.54
2019-05-18T12:51:18.681Z,42.31
2019-05-18T12:53:47.484Z,42.58
2019-05-18T12:56:19.579Z,42.39
2019-05-18T12:58:49.170Z,41.68
2019-05-18T13:01:18.098Z,41.31
2019-05-18T13:03:47.363Z,41.39
2019-05-18T13:06:16.590Z,41.69
2019-05-18T13:08:45.311Z,41.94
2019-05-18T13:11:14.579Z,41.81
2019-05-18T13:13:44.422Z,42.17
2019-05-18T13:16:13.238Z,42.53
2019-05-18T13:18:42.540Z,42.75
2019-05-18T13:21:12.136Z,42.61
2019-05-18T13:23:41.621Z,42.39
2019-05-18T13:26:11.192Z,42.55
2019-05-18T13:28:40.780Z,42.42
2019-05-18T13:31:09.665Z,42.24
2019-05-18T13:33:41.544Z,42.10
2019-05-18T13:36:12.028Z,41.81
2019-05-18T13:38:41.444Z,41.59
2019-05-18T13:41:11.192Z,41.45
2019-05-18T13:43:40.456Z,41.32
2019-05-18T13:46:09.873Z,41.19
2019-05-18T13:48:39.637Z,41.22
2019-05-18T13:51:08.526Z,40.97
2019-05-18T13:53:37.595Z,41.07
2019-05-18T13:56:06.591Z,41.47
2019-05-18T13:58:35.734Z,41.82
2019-05-18T14:01:04.698Z,41.89
2019-05-18T14:03:33.673Z,41.72
2019-05-18T14:06:02.538Z,41.68
2019-05-18T14:08:31.336Z,41.79
2019-05-18T14:11:00.258Z,41.93
2019-05-18T14:13:29.357Z,41.94
2019-05-18T14:15:58.423Z,41.54
2019-05-18T14:18:27.711Z,41.42
2019-05-18T14:20:56.524Z,41.38
2019-05-18T14:23:25.796Z,41.24
2019-05-18T14:25:54.857Z,40.89
2019-05-18T14:28:23.873Z,40.69
2019-05-18T14:30:52.775Z,40.75
2019-05-18T14:33:21.947Z,40.87
2019-05-18T14:35:50.620Z,40.97
2019-05-18T14:38:19.729Z,41.02
2019-05-18T14:40:48.945Z,40.90
2019-05-18T14:43:18.250Z,40.88
2019-05-18T14:45:49.143Z,40.76
2019-05-18T14:48:17.973Z,40.81
2019-05-18T14:50:46.778Z,40.36
2019-05-18T14:53:15.631Z,40.05
2019-05-18T14:55:44.452Z,39.94
2019-05-18T14:58:16.500Z,39.83
2019-05-18T15:00:50.645Z,39.88
2019-05-18T15:03:19.610Z,40.07
2019-05-18T15:05:48.837Z,40.01
2019-05-18T15:08:17.598Z,39.79
2019-05-18T15:10:46.436Z,39.53
2019-05-18T15:13:15.416Z,39.43
2019-05-18T15:15:44.672Z,39.36
2019-05-18T15:18:13.461Z,39.08
2019-05-18T15:20:42.332Z,37.62
2019-05-18T15:23:14.351Z,35.09
2019-05-18T15:25:50.719Z,32.72
2019-05-18T15:28:14.197Z,30.78
2019-05-18T15:30:43.329Z,29.23
2019-05-18T15:33:13.042Z,28.01
2019-05-18T15:35:42.272Z,27.00
2019-05-18T15:38:11.792Z,26.20
2019-05-18T15:40:41.299Z,25.56
2019-05-18T15:43:10.628Z,25.02
2019-05-18T15:45:39.999Z,24.58
2019-05-18T15:48:09.145Z,24.15
2019-05-18T15:50:38.274Z,23.74
2019-05-18T15:53:07.376Z,23.37
2019-05-18T15:55:36.537Z,23.14
2019-05-18T15:58:06.296Z,22.88
2019-05-18T16:00:35.550Z,22.63
2019-05-18T16:03:04.668Z,22.39
2019-05-18T16:05:34.097Z,22.19
2019-05-18T16:08:03.303Z,22.06
2019-05-18T16:10:32.914Z,21.87
2019-05-18T16:13:02.288Z,21.73
2019-05-18T16:15:32.286Z,21.65
2019-05-18T16:18:01.234Z,21.49
2019-05-18T16:20:30.424Z,21.38
2019-05-18T16:22:59.770Z,21.26
2019-05-18T16:25:28.929Z,21.20
2019-05-18T16:27:58.312Z,21.07
2019-05-18T16:30:27.704Z,20.99
2019-05-18T16:32:56.991Z,20.89
2019-05-18T16:35:26.234Z,20.80
2019-05-18T16:37:55.435Z,20.72
2019-05-18T16:40:25.328Z,20.63
2019-05-18T16:42:54.574Z,20.56
2019-05-18T16:45:24.409Z,20.47
2019-05-18T16:47:54.005Z,20.39
2019-05-18T16:50:23.109Z,20.33
2019-05-18T16:52:52.651Z,20.31
2019-05-18T16:55:22.323Z,20.27
2019-05-18T16:57:52.065Z,20.24
2019-05-18T17:00:21.477Z,20.16
2019-05-18T17:02:50.928Z,20.07
2019-05-18T17:05:21.765Z,19.96
2019-05-18T17:07:51.218Z,19.89
2019-05-18T17:10:21.507Z,19.85
2019-05-18T17:12:50.713Z,19.75
2019-05-18T17:15:20.339Z,19.67
2019-05-18T17:17:49.626Z,19.63
2019-05-18T17:20:19.196Z,19.57
2019-05-18T17:22:48.412Z,19.52
2019-05-18T17:25:17.648Z,19.42
2019-05-18T17:27:50.076Z,19.35
2019-05-18T17:30:19.447Z,19.26
2019-05-18T17:32:48.886Z,19.23
2019-05-18T17:35:18.233Z,19.18
2019-05-18T17:37:48.088Z,19.11
2019-05-18T17:40:17.820Z,19.04
2019-05-18T17:42:47.324Z,18.97
2019-05-18T17:45:17.093Z,18.91
2019-05-18T17:47:46.430Z,18.86
2019-05-18T17:50:15.932Z,18.78
2019-05-18T17:52:45.384Z,18.70
2019-05-18T17:55:17.659Z,18.65
2019-05-18T17:57:47.754Z,18.61
2019-05-18T18:00:17.401Z,18.54
2019-05-18T18:02:48.236Z,18.49
2019-05-18T18:05:18.188Z,18.46
2019-05-18T18:07:47.734Z,18.41
2019-05-18T18:10:19.558Z,18.35
2019-05-18T18:12:48.899Z,18.31
2019-05-18T18:15:18.327Z,18.24
2019-05-18T18:17:47.800Z,18.24
2019-05-18T18:20:17.273Z,18.17
2019-05-18T18:22:46.579Z,18.13
2019-05-18T18:25:15.920Z,18.09
2019-05-18T18:27:44.955Z,18.01
2019-05-18T18:30:14.643Z,18.00
2019-05-18T18:32:44.449Z,17.94
2019-05-18T18:35:13.788Z,17.93
2019-05-18T18:37:43.978Z,17.90
2019-05-18T18:40:13.341Z,17.87
2019-05-18T18:42:45.461Z,17.79
2019-05-18T18:45:15.086Z,17.70
2019-05-18T18:47:44.107Z,17.64
2019-05-18T18:50:13.196Z,17.64
2019-05-18T18:52:42.571Z,17.63
2019-05-18T18:55:15.023Z,17.58
2019-05-18T18:57:44.477Z,17.53
2019-05-18T19:00:14.379Z,17.52
2019-05-18T19:02:44.462Z,17.49
2019-05-18T19:05:13.943Z,17.49
2019-05-18T19:07:43.141Z,17.45
2019-05-18T19:10:12.557Z,17.41
2019-05-18T19:12:42.755Z,17.42
2019-05-18T19:15:12.103Z,17.38
2019-05-18T19:17:41.410Z,17.35
2019-05-18T19:20:11.712Z,17.31
2019-05-18T19:22:41.042Z,17.30
2019-05-18T19:25:10.910Z,17.27
2019-05-18T19:27:53.753Z,17.22
2019-05-18T19:30:12.426Z,17.19
2019-05-18T19:32:42.185Z,17.12
2019-05-18T19:35:13.597Z,17.06
2019-05-18T19:37:42.741Z,16.98
2019-05-18T19:40:12.224Z,16.92
2019-05-18T19:42:41.344Z,16.86
2019-05-18T19:45:11.986Z,16.80
2019-05-18T19:47:41.366Z,16.78
2019-05-18T19:50:11.523Z,16.71
2019-05-18T19:52:40.996Z,16.64
2019-05-18T19:55:10.390Z,16.58
2019-05-18T19:57:39.587Z,16.51
2019-05-18T20:00:09.772Z,16.46
2019-05-18T20:02:39.256Z,16.37
2019-05-18T20:05:11.594Z,16.30
2019-05-18T20:07:40.783Z,16.29
2019-05-18T20:10:10.326Z,16.27
2019-05-18T20:12:40.180Z,16.25
2019-05-18T20:15:10.075Z,16.27
2019-05-18T20:17:39.517Z,16.23
2019-05-18T20:20:10.152Z,16.19
2019-05-18T20:22:39.466Z,16.19
2019-05-18T20:25:10.673Z,16.14
2019-05-18T20:27:40.318Z,16.09
2019-05-18T20:30:10.616Z,16.08
2019-05-18T20:32:39.879Z,16.08
2019-05-18T20:35:10.248Z,16.01
2019-05-18T20:37:39.281Z,15.97
2019-05-18T20:40:08.863Z,15.93
2019-05-18T20:42:38.426Z,15.90
2019-05-18T20:45:07.641Z,15.89
2019-05-18T20:47:37.175Z,15.85
2019-05-18T20:50:06.875Z,15.84
2019-05-18T20:52:36.446Z,15.84
2019-05-18T20:55:05.836Z,15.81
2019-05-18T20:57:35.067Z,15.78
2019-05-18T21:00:04.297Z,15.74
2019-05-18T21:02:35.428Z,15.74
2019-05-18T21:05:04.778Z,15.67
2019-05-18T21:07:35.069Z,15.67
2019-05-18T21:10:04.630Z,15.62
2019-05-18T21:12:34.147Z,15.60
2019-05-18T21:15:04.479Z,15.56
2019-05-18T21:17:33.581Z,15.55
2019-05-18T21:20:02.867Z,15.51
2019-05-18T21:22:32.429Z,15.49
2019-05-18T21:25:01.905Z,15.52
2019-05-18T21:27:33.487Z,15.53
2019-05-18T21:30:03.183Z,15.58
2019-05-18T21:32:32.276Z,15.59
2019-05-18T21:35:01.275Z,15.61
2019-05-18T21:37:30.488Z,15.66
2019-05-18T21:39:59.721Z,15.67
2019-05-18T21:42:29.454Z,15.65
2019-05-18T21:44:59.098Z,15.64
2019-05-18T21:47:28.476Z,15.66
2019-05-18T21:49:57.673Z,15.66
2019-05-18T21:52:26.926Z,15.71
2019-05-18T21:54:56.282Z,15.76
2019-05-18T21:57:26.572Z,15.84
2019-05-18T21:59:55.800Z,15.96
2019-05-18T22:02:24.742Z,15.98
2019-05-18T22:04:53.732Z,16.01
2019-05-18T22:07:22.852Z,16.01
2019-05-18T22:09:53.778Z,16.02
2019-05-18T22:12:23.299Z,15.99
2019-05-18T22:14:52.458Z,15.99
2019-05-18T22:17:21.613Z,15.98
2019-05-18T22:19:51.167Z,15.96
2019-05-18T22:22:20.530Z,15.93
2019-05-18T22:24:49.721Z,15.89
2019-05-18T22:27:18.801Z,15.89
2019-05-18T22:29:48.621Z,15.83
2019-05-18T22:32:18.082Z,15.79
2019-05-18T22:34:47.717Z,15.76
2019-05-18T22:37:16.818Z,15.71
2019-05-18T22:39:46.002Z,15.67
2019-05-18T22:42:15.367Z,15.69
2019-05-18T22:44:45.435Z,15.67
2019-05-18T22:47:15.006Z,15.70
2019-05-18T22:49:45.454Z,15.70
2019-05-18T22:52:15.218Z,15.66
2019-05-18T22:54:45.094Z,15.61
2019-05-18T22:57:14.248Z,15.56
2019-05-18T22:59:43.573Z,15.49
2019-05-18T23:02:13.230Z,15.44
2019-05-18T23:04:42.425Z,15.41
2019-05-18T23:07:11.896Z,15.35
2019-05-18T23:09:41.152Z,15.29
2019-05-18T23:12:10.396Z,15.24
2019-05-18T23:14:39.813Z,15.19
2019-05-18T23:17:08.991Z,15.12
2019-05-18T23:19:37.971Z,15.01
2019-05-18T23:22:08.659Z,14.94
2019-05-18T23:24:39.335Z,14.85
2019-05-18T23:27:09.936Z,14.80
2019-05-18T23:29:39.169Z,14.74
2019-05-18T23:32:08.534Z,14.67
2019-05-18T23:34:37.653Z,14.60
2019-05-18T23:37:07.091Z,14.52
2019-05-18T23:39:36.067Z,14.47
2019-05-18T23:42:05.605Z,14.46
2019-05-18T23:44:34.783Z,14.56
2019-05-18T23:47:03.914Z,14.57
2019-05-18T23:49:33.232Z,14.57
2019-05-18T23:52:02.626Z,14.61
2019-05-18T23:54:32.019Z,14.51
2019-05-18T23:57:00.959Z,14.48
2019-05-18T23:59:29.921Z,14.49
